createdAt,value
2019-01-26T00:01:22.179Z,2.73
2019-01-26T00:03:51.325Z,1.30
2019-01-26T00:06:20.406Z,2.73
2019-01-26T00:08:49.567Z,3.10
2019-01-26T00:11:18.602Z,2.10
2019-01-26T00:13:47.685Z,3.80
2019-01-26T00:16:21.041Z,4.50
2019-01-26T00:18:47.485Z,2.20
2019-01-26T00:21:16.620Z,3.33
2019-01-26T00:23:45.726Z,3.10
2019-01-26T00:26:14.817Z,5.77
2019-01-26T00:28:43.959Z,2.80
2019-01-26T00:31:13.022Z,2.47
2019-01-26T00:33:43.406Z,3.50
2019-01-26T00:36:12.548Z,2.23
2019-01-26T00:38:41.618Z,3.00
2019-01-26T00:41:10.666Z,2.67
2019-01-26T00:43:39.655Z,2.87
2019-01-26T00:46:08.696Z,3.00
2019-01-26T00:48:37.790Z,2.83
2019-01-26T00:51:06.922Z,3.77
2019-01-26T00:53:35.999Z,3.60
2019-01-26T00:56:05.094Z,6.70
2019-01-26T00:58:34.232Z,3.73
2019-01-26T01:01:03.333Z,2.80
2019-01-26T01:03:32.454Z,2.80
2019-01-26T01:06:01.539Z,3.77
2019-01-26T01:08:30.616Z,4.47
2019-01-26T01:10:59.669Z,2.83
2019-01-26T01:13:28.795Z,3.80
2019-01-26T01:15:57.867Z,2.30
2019-01-26T01:18:26.942Z,2.97
2019-01-26T01:20:56.114Z,3.50
2019-01-26T01:23:25.145Z,2.30
2019-01-26T01:25:54.222Z,2.67
2019-01-26T01:28:23.288Z,3.60
2019-01-26T01:30:52.346Z,1.60
2019-01-26T01:33:21.318Z,2.50
2019-01-26T01:35:50.446Z,3.90
2019-01-26T01:38:19.590Z,4.40
2019-01-26T01:40:48.657Z,1.93
2019-01-26T01:43:17.848Z,3.23
2019-01-26T01:45:46.906Z,4.33
2019-01-26T01:48:15.928Z,4.17
2019-01-26T01:50:44.961Z,3.37
2019-01-26T01:53:14.026Z,2.73
2019-01-26T01:55:43.090Z,3.03
2019-01-26T01:58:12.177Z,2.40
2019-01-26T02:00:41.288Z,2.73
2019-01-26T02:03:10.338Z,2.60
2019-01-26T02:05:39.359Z,3.33
2019-01-26T02:08:08.421Z,3.03
2019-01-26T02:10:37.570Z,3.57
2019-01-26T02:13:06.633Z,2.63
2019-01-26T02:15:35.632Z,3.37
2019-01-26T02:18:04.701Z,3.27
2019-01-26T02:20:33.760Z,3.00
2019-01-26T02:23:02.850Z,2.93
2019-01-26T02:25:31.919Z,4.23
2019-01-26T02:28:01.064Z,2.13
2019-01-26T02:30:30.216Z,3.53
2019-01-26T02:32:59.225Z,3.47
2019-01-26T02:35:28.322Z,2.23
2019-01-26T02:37:57.321Z,3.90
2019-01-26T02:40:26.705Z,3.50
2019-01-26T02:42:55.751Z,1.63
2019-01-26T02:45:24.695Z,2.47
2019-01-26T02:47:53.694Z,2.97
2019-01-26T02:50:22.792Z,1.50
2019-01-26T02:52:51.920Z,3.60
2019-01-26T02:55:20.943Z,3.43
2019-01-26T02:57:49.933Z,3.40
2019-01-26T03:00:21.389Z,2.30
2019-01-26T03:02:50.459Z,4.20
2019-01-26T03:05:19.570Z,1.70
2019-01-26T03:07:48.706Z,2.73
2019-01-26T03:10:19.186Z,2.33
2019-01-26T03:12:48.298Z,3.67
2019-01-26T03:15:19.031Z,3.83
2019-01-26T03:17:48.037Z,4.57
2019-01-26T03:20:17.193Z,4.20
2019-01-26T03:22:46.230Z,2.53
2019-01-26T03:25:15.409Z,2.10
2019-01-26T03:27:44.418Z,2.33
2019-01-26T03:30:18.400Z,2.90
2019-01-26T03:32:47.476Z,2.97
2019-01-26T03:35:16.523Z,2.97
2019-01-26T03:37:46.704Z,3.40
2019-01-26T03:40:17.506Z,3.93
2019-01-26T03:42:46.589Z,3.80
2019-01-26T03:45:15.640Z,5.63
2019-01-26T03:47:44.608Z,4.30
2019-01-26T03:50:13.720Z,2.03
2019-01-26T03:52:42.769Z,4.97
2019-01-26T03:55:13.221Z,1.87
2019-01-26T03:57:42.220Z,3.03
2019-01-26T04:00:14.552Z,3.73
2019-01-26T04:02:43.646Z,2.43
2019-01-26T04:05:12.780Z,2.37
2019-01-26T04:07:41.842Z,2.60
2019-01-26T04:10:11.288Z,3.43
2019-01-26T04:12:40.389Z,3.70
2019-01-26T04:15:10.884Z,2.73
2019-01-26T04:17:39.968Z,2.17
2019-01-26T04:20:11.127Z,3.73
2019-01-26T04:22:40.250Z,2.70
2019-01-26T04:25:09.338Z,2.63
2019-01-26T04:27:38.404Z,5.57
2019-01-26T04:30:09.794Z,2.00
2019-01-26T04:32:38.842Z,2.67
2019-01-26T04:35:08.255Z,4.33
2019-01-26T04:37:37.408Z,3.20
2019-01-26T04:40:08.934Z,2.27
2019-01-26T04:42:38.022Z,2.37
2019-01-26T04:45:09.337Z,2.97
2019-01-26T04:47:39.824Z,2.97
2019-01-26T04:50:10.527Z,3.23
2019-01-26T04:52:39.663Z,1.90
2019-01-26T04:55:08.828Z,2.03
2019-01-26T04:57:37.868Z,4.23
2019-01-26T05:00:12.874Z,3.00
2019-01-26T05:02:41.984Z,2.47
2019-01-26T05:05:11.014Z,2.43
2019-01-26T05:07:41.663Z,3.80
2019-01-26T05:10:12.183Z,3.97
2019-01-26T05:12:41.257Z,2.70
2019-01-26T05:15:11.181Z,2.73
2019-01-26T05:17:40.230Z,2.57
2019-01-26T05:20:12.465Z,2.33
2019-01-26T05:22:41.573Z,1.97
2019-01-26T05:25:10.768Z,2.57
2019-01-26T05:27:39.858Z,2.00
2019-01-26T05:30:12.882Z,4.03
2019-01-26T05:32:41.981Z,4.63
2019-01-26T05:35:11.137Z,2.33
2019-01-26T05:37:41.648Z,1.93
2019-01-26T05:40:12.639Z,3.53
2019-01-26T05:42:41.796Z,1.70
2019-01-26T05:45:13.281Z,3.53
2019-01-26T05:47:48.829Z,3.93
2019-01-26T05:50:25.797Z,2.33
2019-01-26T05:52:55.028Z,3.77
2019-01-26T05:55:24.126Z,1.67
2019-01-26T05:57:54.543Z,1.90
2019-01-26T06:00:32.062Z,3.17
2019-01-26T06:03:01.210Z,1.50
2019-01-26T06:05:30.353Z,2.97
2019-01-26T06:07:59.423Z,2.80
2019-01-26T06:10:28.522Z,3.83
2019-01-26T06:12:58.838Z,2.30
2019-01-26T06:15:28.264Z,3.47
2019-01-26T06:17:57.369Z,1.80
2019-01-26T06:20:26.363Z,2.03
2019-01-26T06:22:55.448Z,3.53
2019-01-26T06:25:24.573Z,3.97
2019-01-26T06:27:53.710Z,1.90
2019-01-26T06:30:24.503Z,2.27
2019-01-26T06:32:53.561Z,2.30
2019-01-26T06:35:22.663Z,2.47
2019-01-26T06:37:51.729Z,1.10
2019-01-26T06:40:21.084Z,2.80
2019-01-26T06:42:50.106Z,3.77
2019-01-26T06:45:27.030Z,2.03
2019-01-26T06:48:02.104Z,2.20
2019-01-26T06:50:29.055Z,3.30
2019-01-26T06:52:58.175Z,2.17
2019-01-26T06:55:27.133Z,4.37
2019-01-26T06:57:56.398Z,4.70
2019-01-26T07:00:29.250Z,3.07
2019-01-26T07:02:58.369Z,6.13
2019-01-26T07:05:39.582Z,2.10
2019-01-26T07:08:13.613Z,3.17
2019-01-26T07:10:42.674Z,3.33
2019-01-26T07:13:11.695Z,1.87
2019-01-26T07:15:40.967Z,2.77
2019-01-26T07:18:10.048Z,5.93
2019-01-26T07:20:39.200Z,2.97
2019-01-26T07:23:08.407Z,3.33
2019-01-26T07:25:37.593Z,2.60
2019-01-26T07:28:06.642Z,2.57
2019-01-26T07:30:35.798Z,2.77
2019-01-26T07:33:04.870Z,3.93
2019-01-26T07:35:33.852Z,1.60
2019-01-26T07:38:02.909Z,3.40
2019-01-26T07:40:31.975Z,2.23
2019-01-26T07:43:01.051Z,3.73
2019-01-26T07:45:30.485Z,4.63
2019-01-26T07:48:01.403Z,4.10
2019-01-26T07:50:30.525Z,6.10
2019-01-26T07:52:59.598Z,3.57
2019-01-26T07:55:28.646Z,4.93
2019-01-26T07:57:57.698Z,4.30
2019-01-26T08:00:27.191Z,5.43
2019-01-26T08:02:56.328Z,6.37
2019-01-26T08:05:44.572Z,3.57
2019-01-26T08:08:13.650Z,9.03
2019-01-26T08:10:42.750Z,4.77
2019-01-26T08:13:11.806Z,4.93
2019-01-26T08:15:42.251Z,6.43
2019-01-26T08:18:11.448Z,2.87
2019-01-26T08:20:40.836Z,3.53
2019-01-26T08:23:09.886Z,2.90
2019-01-26T08:25:38.926Z,4.03
2019-01-26T08:28:07.891Z,3.33
2019-01-26T08:30:37.014Z,2.80
2019-01-26T08:33:06.120Z,2.30
2019-01-26T08:35:35.178Z,2.07
2019-01-26T08:38:04.319Z,3.20
2019-01-26T08:40:33.376Z,4.23
2019-01-26T08:43:21.639Z,3.03
2019-01-26T08:45:51.179Z,4.40
2019-01-26T08:48:20.347Z,1.97
2019-01-26T08:50:49.397Z,2.80
2019-01-26T08:53:18.422Z,3.67
2019-01-26T08:55:47.441Z,3.63
2019-01-26T08:58:16.571Z,2.97
2019-01-26T09:00:45.663Z,3.37
2019-01-26T09:03:36.078Z,4.63
2019-01-26T09:06:15.295Z,11.63
2019-01-26T09:08:44.410Z,13.13
2019-01-26T09:11:13.480Z,13.03
2019-01-26T09:13:42.623Z,22.93
2019-01-26T09:16:11.779Z,19.30
2019-01-26T09:18:40.756Z,18.07
2019-01-26T09:21:09.794Z,7.27
2019-01-26T09:23:38.782Z,13.90
2019-01-26T09:26:07.755Z,11.60
2019-01-26T09:28:37.004Z,14.20
2019-01-26T09:31:06.133Z,12.57
2019-01-26T09:33:35.196Z,9.63
2019-01-26T09:36:04.981Z,8.90
2019-01-26T09:38:34.077Z,6.60
2019-01-26T09:41:03.156Z,5.63
2019-01-26T09:43:32.196Z,10.53
2019-01-26T09:46:01.244Z,8.50
2019-01-26T09:48:30.260Z,4.33
2019-01-26T09:50:59.388Z,9.90
2019-01-26T09:53:28.432Z,8.13
2019-01-26T09:55:57.467Z,5.87
2019-01-26T09:58:26.504Z,4.63
2019-01-26T10:00:55.540Z,7.60
2019-01-26T10:03:24.578Z,6.73
2019-01-26T10:05:53.640Z,6.87
2019-01-26T10:08:22.776Z,6.90
2019-01-26T10:10:51.938Z,6.77
2019-01-26T10:13:21.058Z,5.77
2019-01-26T10:15:50.216Z,4.20
2019-01-26T10:18:19.363Z,7.60
2019-01-26T10:20:48.422Z,5.60
2019-01-26T10:23:17.401Z,6.17
2019-01-26T10:25:48.838Z,7.23
2019-01-26T10:28:17.157Z,7.73
2019-01-26T10:30:55.450Z,3.07
2019-01-26T10:33:24.440Z,5.93
2019-01-26T10:36:18.651Z,4.53
2019-01-26T10:38:54.472Z,8.77
2019-01-26T10:41:51.705Z,2.17
2019-01-26T10:44:26.998Z,6.37
2019-01-26T10:46:56.073Z,4.70
2019-01-26T10:49:25.161Z,5.80
2019-01-26T10:51:54.213Z,6.03
2019-01-26T10:54:23.248Z,3.43
2019-01-26T10:56:52.322Z,2.00
2019-01-26T10:59:21.378Z,3.90
2019-01-26T11:01:50.407Z,4.00
2019-01-26T11:04:19.481Z,4.47
2019-01-26T11:06:48.514Z,1.87
2019-01-26T11:09:17.575Z,5.57
2019-01-26T11:11:46.626Z,4.00
2019-01-26T11:14:15.779Z,5.90
2019-01-26T11:16:44.811Z,3.30
2019-01-26T11:19:13.809Z,1.77
2019-01-26T11:21:42.824Z,2.70
2019-01-26T11:24:11.963Z,3.93
2019-01-26T11:26:41.022Z,2.47
2019-01-26T11:29:09.999Z,1.97
2019-01-26T11:31:39.413Z,4.17
2019-01-26T11:34:08.386Z,6.03
2019-01-26T11:36:39.549Z,6.27
2019-01-26T11:39:11.890Z,5.20
2019-01-26T11:41:41.122Z,6.20
2019-01-26T11:44:10.282Z,6.70
2019-01-26T11:46:45.662Z,5.93
2019-01-26T11:49:15.428Z,16.00
2019-01-26T11:52:09.515Z,4.90
2019-01-26T11:54:57.209Z,11.40
2019-01-26T11:57:28.500Z,8.83
2019-01-26T12:00:15.285Z,2.07
2019-01-26T12:02:52.883Z,5.73
2019-01-26T12:05:33.534Z,9.50
2019-01-26T12:08:02.637Z,9.17
2019-01-26T12:10:32.382Z,5.53
2019-01-26T12:13:01.423Z,6.13
2019-01-26T12:15:31.646Z,7.00
2019-01-26T12:18:00.713Z,12.60
2019-01-26T12:20:29.774Z,5.17
2019-01-26T12:22:58.826Z,5.17
2019-01-26T12:25:27.841Z,3.43
2019-01-26T12:27:56.887Z,5.83
2019-01-26T12:30:26.436Z,6.97
2019-01-26T12:32:55.591Z,5.97
2019-01-26T12:35:24.587Z,5.73
2019-01-26T12:37:53.614Z,4.10
2019-01-26T12:40:22.623Z,2.47
2019-01-26T12:42:51.795Z,2.23
2019-01-26T12:45:20.884Z,4.53
2019-01-26T12:47:49.938Z,7.17
2019-01-26T12:50:19.032Z,2.70
2019-01-26T12:52:48.065Z,3.70
2019-01-26T12:55:17.099Z,5.93
2019-01-26T12:57:46.180Z,3.53
2019-01-26T13:00:17.627Z,6.33
2019-01-26T13:02:46.639Z,5.47
2019-01-26T13:05:15.716Z,6.53
2019-01-26T13:07:44.846Z,5.13
2019-01-26T13:10:22.500Z,4.00
2019-01-26T13:12:52.384Z,4.67
2019-01-26T13:15:21.363Z,2.30
2019-01-26T13:17:51.738Z,5.57
2019-01-26T13:20:20.846Z,6.33
2019-01-26T13:22:49.899Z,3.73
2019-01-26T13:25:18.955Z,5.17
2019-01-26T13:27:47.937Z,4.17
2019-01-26T13:30:18.274Z,3.40
2019-01-26T13:32:47.317Z,2.97
2019-01-26T13:35:16.316Z,2.93
2019-01-26T13:37:45.357Z,4.43
2019-01-26T13:40:17.039Z,3.83
2019-01-26T13:42:46.144Z,5.90
2019-01-26T13:45:26.776Z,2.00
2019-01-26T13:47:55.827Z,2.73
2019-01-26T13:50:24.943Z,2.47
2019-01-26T13:52:54.005Z,3.50
2019-01-26T13:55:23.072Z,2.63
2019-01-26T13:57:52.134Z,3.60
2019-01-26T14:00:26.374Z,3.73
2019-01-26T14:02:55.363Z,2.83
2019-01-26T14:05:25.592Z,2.30
2019-01-26T14:07:54.724Z,2.63
2019-01-26T14:10:23.783Z,1.43
2019-01-26T14:12:52.919Z,1.77
2019-01-26T14:15:21.934Z,6.47
2019-01-26T14:17:50.929Z,3.33
2019-01-26T14:20:21.444Z,1.40
2019-01-26T14:22:50.584Z,2.30
2019-01-26T14:25:19.610Z,2.10
2019-01-26T14:27:48.614Z,2.87
2019-01-26T14:30:20.729Z,2.43
2019-01-26T14:32:52.540Z,2.23
2019-01-26T14:35:21.878Z,3.03
2019-01-26T14:37:50.888Z,3.20
2019-01-26T14:40:19.993Z,2.50
2019-01-26T14:42:54.233Z,3.80
2019-01-26T14:45:19.782Z,3.50
2019-01-26T14:47:48.813Z,2.63
2019-01-26T14:50:17.915Z,11.77
2019-01-26T14:52:46.996Z,29.87
2019-01-26T14:55:17.976Z,21.13
2019-01-26T14:57:48.012Z,15.70
2019-01-26T15:00:22.854Z,25.47
2019-01-26T15:02:51.917Z,15.70
2019-01-26T15:05:22.191Z,49.07
2019-01-26T15:07:51.214Z,35.80
2019-01-26T15:10:20.181Z,29.77
2019-01-26T15:12:49.244Z,33.23
2019-01-26T15:15:18.358Z,33.60
2019-01-26T15:17:47.349Z,17.83
2019-01-26T15:20:18.985Z,17.90
2019-01-26T15:22:48.007Z,30.03
2019-01-26T15:25:17.034Z,19.17
2019-01-26T15:27:46.048Z,21.63
2019-01-26T15:30:18.213Z,10.97
2019-01-26T15:32:47.246Z,33.67
2019-01-26T15:35:16.290Z,16.07
2019-01-26T15:37:45.322Z,19.53
2019-01-26T15:40:14.316Z,22.80
2019-01-26T15:42:43.380Z,13.37
2019-01-26T15:45:21.018Z,12.53
2019-01-26T15:47:50.008Z,15.47
2019-01-26T15:50:19.004Z,11.67
2019-01-26T15:52:48.026Z,17.30
2019-01-26T15:55:19.812Z,11.33
2019-01-26T15:57:48.886Z,10.37
2019-01-26T16:00:20.205Z,7.33
2019-01-26T16:02:49.277Z,12.27
2019-01-26T16:05:19.341Z,7.57
2019-01-26T16:07:48.400Z,9.90
2019-01-26T16:10:19.202Z,4.33
2019-01-26T16:12:48.300Z,6.13
2019-01-26T16:15:19.452Z,7.47
2019-01-26T16:17:48.501Z,10.00
2019-01-26T16:20:20.324Z,7.80
2019-01-26T16:22:48.778Z,9.23
2019-01-26T16:25:19.159Z,3.13
2019-01-26T16:27:48.274Z,9.47
2019-01-26T16:30:22.198Z,5.73
2019-01-26T16:32:51.159Z,2.53
2019-01-26T16:35:21.310Z,4.80
2019-01-26T16:37:50.392Z,6.97
2019-01-26T16:40:30.960Z,7.77
2019-01-26T16:42:59.987Z,4.40
2019-01-26T16:45:32.449Z,7.43
2019-01-26T16:48:01.519Z,6.37
2019-01-26T16:50:30.851Z,3.33
2019-01-26T16:52:59.833Z,1.60
2019-01-26T16:55:28.885Z,6.03
2019-01-26T16:57:57.850Z,5.73
2019-01-26T17:00:33.999Z,4.70
2019-01-26T17:03:02.962Z,5.07
2019-01-26T17:05:33.310Z,4.67
2019-01-26T17:08:02.276Z,2.13
2019-01-26T17:10:34.259Z,1.57
2019-01-26T17:13:02.046Z,2.97
2019-01-26T17:15:30.992Z,6.53
2019-01-26T17:17:59.990Z,3.63
2019-01-26T17:20:34.777Z,1.83
2019-01-26T17:23:00.654Z,5.40
2019-01-26T17:25:29.725Z,1.77
2019-01-26T17:27:58.646Z,3.10
2019-01-26T17:30:33.022Z,0.97
2019-01-26T17:33:07.329Z,2.83
2019-01-26T17:35:34.102Z,2.10
2019-01-26T17:38:03.189Z,2.23
2019-01-26T17:40:32.234Z,2.13
2019-01-26T17:43:01.158Z,1.67
2019-01-26T17:45:30.261Z,3.43
2019-01-26T17:47:59.251Z,3.13
2019-01-26T17:50:28.302Z,2.37
2019-01-26T17:52:57.274Z,3.30
2019-01-26T17:55:26.331Z,1.87
2019-01-26T17:57:55.374Z,2.50
2019-01-26T18:00:30.092Z,2.83
2019-01-26T18:02:59.249Z,1.87
2019-01-26T18:05:28.248Z,1.77
2019-01-26T18:07:57.201Z,1.10
2019-01-26T18:10:26.262Z,1.87
2019-01-26T18:12:55.310Z,2.20
2019-01-26T18:15:24.449Z,3.37
2019-01-26T18:17:53.478Z,1.37
2019-01-26T18:20:24.336Z,2.50
2019-01-26T18:22:53.398Z,2.80
2019-01-26T18:25:24.102Z,1.13
2019-01-26T18:27:53.135Z,1.73
2019-01-26T18:30:23.891Z,2.07
2019-01-26T18:32:52.948Z,9.23
2019-01-26T18:35:21.993Z,1.87
2019-01-26T18:37:51.078Z,1.17
2019-01-26T18:40:22.329Z,2.67
2019-01-26T18:42:51.366Z,2.93
2019-01-26T18:45:21.515Z,1.80
2019-01-26T18:47:50.472Z,3.80
2019-01-26T18:50:22.036Z,6.03
2019-01-26T18:52:51.165Z,3.00
2019-01-26T18:55:20.212Z,3.80
2019-01-26T18:57:49.280Z,1.40
2019-01-26T19:00:29.561Z,4.03
2019-01-26T19:03:08.533Z,2.10
2019-01-26T19:05:37.709Z,3.07
2019-01-26T19:08:06.785Z,3.73
2019-01-26T19:10:35.874Z,1.33
2019-01-26T19:13:05.056Z,2.93
2019-01-26T19:15:34.196Z,2.40
2019-01-26T19:18:03.272Z,2.03
2019-01-26T19:20:32.434Z,4.40
2019-01-26T19:23:01.482Z,1.80
2019-01-26T19:25:42.680Z,1.97
2019-01-26T19:28:12.786Z,2.67
2019-01-26T19:30:41.762Z,2.70
2019-01-26T19:33:10.833Z,2.23
2019-01-26T19:35:39.945Z,2.53
2019-01-26T19:38:09.006Z,1.60
2019-01-26T19:40:38.076Z,4.60
2019-01-26T19:43:07.114Z,3.90
2019-01-26T19:45:36.194Z,2.30
2019-01-26T19:48:05.269Z,0.90
2019-01-26T19:50:34.336Z,2.07
2019-01-26T19:53:03.387Z,2.20
2019-01-26T19:55:32.449Z,1.30
2019-01-26T19:58:01.509Z,0.80
2019-01-26T20:00:30.471Z,3.63
2019-01-26T20:02:59.545Z,1.47
2019-01-26T20:05:28.651Z,1.73
2019-01-26T20:07:57.721Z,1.33
2019-01-26T20:10:26.788Z,3.50
2019-01-26T20:12:55.922Z,2.10
2019-01-26T20:15:25.091Z,0.93
2019-01-26T20:17:54.240Z,3.23
2019-01-26T20:20:25.985Z,5.60
2019-01-26T20:22:55.036Z,4.45
2019-01-26T20:25:24.103Z,5.33
2019-01-26T20:27:53.187Z,4.90
2019-01-26T20:30:24.607Z,4.37
2019-01-26T20:32:53.687Z,2.33
2019-01-26T20:35:22.728Z,12.47
2019-01-26T20:37:51.831Z,5.97
2019-01-26T20:40:20.911Z,5.63
2019-01-26T20:42:50.061Z,3.97
2019-01-26T20:45:21.291Z,9.33
2019-01-26T20:47:50.450Z,4.80
2019-01-26T20:50:19.880Z,4.97
2019-01-26T20:52:49.212Z,5.70
2019-01-26T20:55:21.258Z,6.47
2019-01-26T20:57:50.510Z,4.50
2019-01-26T21:00:24.782Z,5.67
2019-01-26T21:02:53.863Z,15.23
2019-01-26T21:05:27.705Z,24.73
2019-01-26T21:07:57.809Z,35.80
2019-01-26T21:10:28.543Z,23.90
2019-01-26T21:12:57.919Z,24.43
2019-01-26T21:15:26.954Z,26.42
2019-01-26T21:17:55.976Z,22.42
2019-01-26T21:20:25.500Z,20.83
2019-01-26T21:22:54.560Z,16.60
2019-01-26T21:25:23.754Z,19.27
2019-01-26T21:27:52.840Z,14.67
2019-01-26T21:30:24.034Z,14.93
2019-01-26T21:32:53.307Z,14.73
2019-01-26T21:35:22.896Z,13.30
2019-01-26T21:37:51.984Z,12.27
2019-01-26T21:40:22.868Z,13.27
2019-01-26T21:42:51.894Z,9.97
2019-01-26T21:45:21.529Z,13.33
2019-01-26T21:47:50.570Z,13.57
2019-01-26T21:50:21.675Z,11.60
2019-01-26T21:52:50.758Z,12.03
2019-01-26T21:55:19.783Z,11.37
2019-01-26T21:57:48.867Z,10.63
2019-01-26T22:00:23.298Z,8.10
2019-01-26T22:02:52.441Z,12.23
2019-01-26T22:05:21.578Z,6.43
2019-01-26T22:07:51.641Z,9.50
2019-01-26T22:10:21.593Z,11.00
2019-01-26T22:12:50.656Z,5.40
2019-01-26T22:15:21.281Z,11.10
2019-01-26T22:17:50.319Z,7.80
2019-01-26T22:20:21.138Z,8.47
2019-01-26T22:22:50.173Z,8.57
2019-01-26T22:25:19.764Z,10.17
2019-01-26T22:27:48.878Z,9.47
2019-01-26T22:30:20.310Z,13.33
2019-01-26T22:32:49.314Z,15.93
2019-01-26T22:35:18.370Z,18.77
2019-01-26T22:37:47.364Z,25.13
2019-01-26T22:40:21.946Z,37.03
2019-01-26T22:42:51.007Z,59.63
2019-01-26T22:45:20.074Z,92.53
2019-01-26T22:47:50.193Z,110.83
2019-01-26T22:50:19.728Z,140.70
2019-01-26T22:52:48.848Z,157.90
2019-01-26T22:55:18.394Z,167.17
2019-01-26T22:57:47.429Z,199.70
2019-01-26T23:00:24.950Z,229.33
2019-01-26T23:02:54.013Z,237.83
2019-01-26T23:05:40.397Z,246.43
2019-01-26T23:08:17.747Z,258.30
2019-01-26T23:11:13.430Z,279.03
2019-01-26T23:14:30.973Z,284.83
2019-01-26T23:17:44.497Z,293.73
2019-01-26T23:20:31.694Z,289.83
2019-01-26T23:23:32.926Z,284.87
2019-01-26T23:26:29.826Z,283.07
2019-01-26T23:29:37.308Z,262.37
2019-01-26T23:32:06.390Z,254.07
2019-01-26T23:34:35.354Z,249.20
2019-01-26T23:37:04.429Z,244.77
2019-01-26T23:39:33.507Z,224.17
2019-01-26T23:42:02.686Z,216.33
2019-01-26T23:44:31.766Z,207.47
2019-01-26T23:47:00.790Z,202.77
2019-01-26T23:49:29.945Z,184.70
2019-01-26T23:51:59.015Z,188.70
2019-01-26T23:54:28.174Z,182.57
2019-01-26T23:56:57.254Z,165.07
2019-01-26T23:59:26.392Z,159.47
